createdAt,value
2017-10-18T00:02:15.548Z,16.63
2017-10-18T00:04:43.005Z,17.47
2017-10-18T00:07:10.525Z,19.13
2017-10-18T00:09:37.976Z,17.20
2017-10-18T00:12:05.452Z,18.33
2017-10-18T00:14:32.916Z,21.77
2017-10-18T00:17:00.400Z,22.67
2017-10-18T00:19:27.879Z,26.47
2017-10-18T00:21:55.442Z,25.83
2017-10-18T00:24:22.886Z,24.20
2017-10-18T00:26:50.365Z,24.70
2017-10-18T00:29:17.821Z,30.10
2017-10-18T00:31:45.291Z,28.07
2017-10-18T00:34:12.768Z,25.53
2017-10-18T00:36:40.300Z,27.47
2017-10-18T00:39:07.850Z,28.43
2017-10-18T00:41:35.328Z,26.10
2017-10-18T00:44:02.858Z,26.23
2017-10-18T00:46:30.427Z,24.70
2017-10-18T00:48:57.884Z,25.20
2017-10-18T00:51:25.355Z,26.07
2017-10-18T00:53:52.824Z,25.67
2017-10-18T00:56:20.340Z,26.70
2017-10-18T00:58:47.812Z,32.80
2017-10-18T01:01:15.280Z,28.60
2017-10-18T01:03:42.740Z,31.10
2017-10-18T01:06:10.284Z,25.40
2017-10-18T01:08:37.743Z,26.20
2017-10-18T01:11:05.308Z,23.93
2017-10-18T01:13:32.758Z,24.37
2017-10-18T01:16:00.204Z,28.10
2017-10-18T01:18:27.699Z,22.20
2017-10-18T01:20:55.227Z,22.97
2017-10-18T01:23:22.699Z,24.17
2017-10-18T01:25:50.145Z,21.30
2017-10-18T01:28:17.609Z,23.33
2017-10-18T01:30:45.071Z,20.87
2017-10-18T01:33:12.552Z,19.77
2017-10-18T01:35:39.998Z,19.30
2017-10-18T01:38:07.475Z,24.13
2017-10-18T01:40:34.938Z,20.90
2017-10-18T01:43:02.432Z,22.60
2017-10-18T01:45:30.002Z,21.37
2017-10-18T01:47:57.470Z,21.50
2017-10-18T01:50:24.936Z,22.97
2017-10-18T01:52:52.411Z,22.00
2017-10-18T01:55:19.926Z,21.30
2017-10-18T01:57:47.413Z,23.20
2017-10-18T02:00:14.931Z,22.90
2017-10-18T02:02:42.515Z,24.07
2017-10-18T02:05:09.963Z,23.10
2017-10-18T02:07:37.535Z,23.23
2017-10-18T02:10:05.077Z,21.70
2017-10-18T02:12:32.541Z,22.57
2017-10-18T02:14:59.999Z,20.63
2017-10-18T02:17:27.548Z,20.00
2017-10-18T02:19:55.016Z,23.60
2017-10-18T02:22:22.560Z,22.17
2017-10-18T02:24:50.006Z,22.87
2017-10-18T02:27:17.500Z,20.50
2017-10-18T02:29:44.958Z,21.73
2017-10-18T02:32:12.478Z,25.30
2017-10-18T02:34:39.949Z,22.47
2017-10-18T02:37:07.452Z,19.80
2017-10-18T02:39:34.909Z,18.10
2017-10-18T02:42:02.387Z,18.40
2017-10-18T02:44:29.853Z,18.00
2017-10-18T02:46:57.331Z,19.17
2017-10-18T02:49:24.808Z,17.23
2017-10-18T02:51:52.254Z,18.07
2017-10-18T02:54:19.734Z,18.97
2017-10-18T02:56:47.208Z,20.20
2017-10-18T02:59:14.680Z,19.23
2017-10-18T03:01:42.147Z,16.73
2017-10-18T03:04:09.738Z,16.23
2017-10-18T03:06:37.182Z,15.57
2017-10-18T03:09:04.661Z,16.57
2017-10-18T03:11:32.132Z,15.93
2017-10-18T03:13:59.607Z,15.67
2017-10-18T03:16:27.055Z,18.03
2017-10-18T03:18:54.528Z,18.10
2017-10-18T03:21:21.990Z,17.03
2017-10-18T03:23:49.456Z,20.20
2017-10-18T03:26:16.915Z,17.27
2017-10-18T03:28:44.382Z,16.87
2017-10-18T03:31:11.857Z,19.40
2017-10-18T03:33:39.336Z,19.00
2017-10-18T03:36:06.782Z,20.00
2017-10-18T03:38:34.251Z,18.53
2017-10-18T03:41:02.264Z,16.20
2017-10-18T03:43:29.747Z,18.70
2017-10-18T03:45:57.213Z,19.07
2017-10-18T03:48:24.686Z,15.90
2017-10-18T03:50:52.131Z,16.50
2017-10-18T03:53:19.622Z,18.43
2017-10-18T03:55:47.130Z,14.50
2017-10-18T03:58:14.692Z,15.87
2017-10-18T04:00:42.179Z,13.97
2017-10-18T04:03:09.709Z,13.13
2017-10-18T04:05:37.191Z,13.40
2017-10-18T04:08:04.637Z,13.73
2017-10-18T04:10:32.175Z,14.87
2017-10-18T04:12:59.632Z,15.17
2017-10-18T04:15:27.107Z,13.17
2017-10-18T04:17:54.554Z,13.97
2017-10-18T04:20:22.113Z,13.40
2017-10-18T04:22:49.662Z,14.17
2017-10-18T04:25:17.135Z,11.90
2017-10-18T04:27:44.598Z,9.80
2017-10-18T04:30:12.071Z,9.80
2017-10-18T04:32:39.536Z,10.60
2017-10-18T04:35:07.023Z,12.13
2017-10-18T04:37:34.483Z,10.93
2017-10-18T04:40:01.964Z,10.17
2017-10-18T04:42:29.413Z,11.70
2017-10-18T04:44:56.890Z,10.70
2017-10-18T04:47:24.342Z,12.47
2017-10-18T04:49:51.809Z,11.40
2017-10-18T04:52:19.263Z,12.33
2017-10-18T04:54:46.739Z,12.67
2017-10-18T04:57:14.194Z,11.20
2017-10-18T04:59:41.675Z,13.87
2017-10-18T05:02:09.180Z,13.20
2017-10-18T05:04:36.660Z,12.20
2017-10-18T05:07:04.111Z,16.10
2017-10-18T05:09:31.586Z,14.73
2017-10-18T05:11:59.032Z,17.70
2017-10-18T05:14:26.512Z,12.37
2017-10-18T05:16:53.987Z,12.87
2017-10-18T05:19:21.468Z,16.27
2017-10-18T05:21:48.983Z,19.40
2017-10-18T05:24:17.402Z,13.20
2017-10-18T05:26:44.854Z,12.33
2017-10-18T05:29:12.324Z,12.70
2017-10-18T05:31:39.782Z,11.53
2017-10-18T05:34:07.235Z,10.60
2017-10-18T05:36:34.744Z,12.17
2017-10-18T05:39:02.227Z,11.43
2017-10-18T05:41:29.703Z,12.60
2017-10-18T05:43:57.177Z,14.27
2017-10-18T05:46:24.675Z,13.10
2017-10-18T05:48:52.174Z,14.80
2017-10-18T05:51:19.637Z,10.97
2017-10-18T05:53:47.077Z,13.83
2017-10-18T05:56:14.567Z,12.60
2017-10-18T05:58:42.028Z,12.67
2017-10-18T06:01:09.505Z,15.70
2017-10-18T06:03:36.965Z,12.83
2017-10-18T06:06:04.439Z,13.50
2017-10-18T06:08:31.900Z,15.80
2017-10-18T06:10:59.491Z,13.53
2017-10-18T06:13:26.975Z,19.80
2017-10-18T06:15:54.602Z,21.97
2017-10-18T06:18:22.290Z,15.83
2017-10-18T06:20:50.197Z,20.57
2017-10-18T06:23:17.862Z,12.50
2017-10-18T06:25:45.564Z,15.73
2017-10-18T06:28:14.081Z,14.67
2017-10-18T06:30:41.731Z,14.10
2017-10-18T06:33:09.379Z,13.57
2017-10-18T06:35:37.177Z,12.83
2017-10-18T06:38:04.728Z,14.43
2017-10-18T06:40:32.388Z,11.03
2017-10-18T06:43:01.216Z,10.93
2017-10-18T06:45:29.363Z,13.40
2017-10-18T06:47:57.125Z,13.47
2017-10-18T06:50:24.783Z,14.23
2017-10-18T06:52:52.551Z,15.37
2017-10-18T06:55:20.152Z,12.30
2017-10-18T06:57:48.386Z,12.77
2017-10-18T07:00:16.046Z,9.97
2017-10-18T07:02:43.686Z,11.27
2017-10-18T07:05:11.280Z,10.53
2017-10-18T07:07:39.134Z,12.47
2017-10-18T07:10:06.774Z,12.20
2017-10-18T07:12:34.661Z,12.70
2017-10-18T07:15:02.289Z,12.73
2017-10-18T07:17:30.188Z,12.93
2017-10-18T07:19:57.964Z,13.43
2017-10-18T07:22:25.547Z,13.43
2017-10-18T07:24:53.125Z,12.80
2017-10-18T07:27:24.727Z,13.23
2017-10-18T07:29:52.254Z,13.30
2017-10-18T07:32:20.154Z,14.23
2017-10-18T07:34:47.771Z,15.03
2017-10-18T07:37:16.087Z,12.80
2017-10-18T07:42:22.286Z,14.67
2017-10-18T07:44:50.257Z,11.07
2017-10-18T07:47:17.938Z,14.53
2017-10-18T07:49:45.611Z,14.10
2017-10-18T07:52:13.154Z,15.60
2017-10-18T07:54:40.639Z,14.60
2017-10-18T07:57:08.248Z,12.17
2017-10-18T07:59:35.789Z,13.10
2017-10-18T08:02:03.554Z,13.00
2017-10-18T08:04:31.025Z,13.87
2017-10-18T08:06:58.612Z,15.30
2017-10-18T08:09:26.127Z,14.50
2017-10-18T08:11:53.751Z,14.80
2017-10-18T08:14:21.299Z,14.20
2017-10-18T08:16:48.870Z,15.17
2017-10-18T08:19:16.372Z,17.03
2017-10-18T08:21:43.909Z,15.10
2017-10-18T08:24:11.479Z,15.47
2017-10-18T08:26:39.021Z,17.30
2017-10-18T08:29:06.477Z,16.30
2017-10-18T08:31:33.984Z,17.57
2017-10-18T08:34:01.471Z,15.90
2017-10-18T08:36:29.271Z,15.97
2017-10-18T08:38:57.131Z,16.93
2017-10-18T08:41:24.895Z,16.37
2017-10-18T08:43:52.772Z,16.20
2017-10-18T08:46:20.533Z,15.40
2017-10-18T08:48:48.401Z,15.90
2017-10-18T08:51:16.164Z,15.03
2017-10-18T08:53:44.031Z,15.87
2017-10-18T08:56:11.897Z,15.10
2017-10-18T08:58:39.660Z,16.50
2017-10-18T09:01:07.429Z,17.30
2017-10-18T09:03:35.886Z,14.80
2017-10-18T09:06:03.771Z,16.20
2017-10-18T09:08:31.607Z,15.83
2017-10-18T09:10:59.296Z,18.57
2017-10-18T09:13:27.164Z,17.43
2017-10-18T09:15:54.891Z,18.00
2017-10-18T09:18:22.692Z,16.80
2017-10-18T09:20:50.309Z,17.63
2017-10-18T09:23:17.944Z,17.30
2017-10-18T09:25:45.563Z,20.00
2017-10-18T09:28:13.222Z,19.43
2017-10-18T09:30:40.999Z,19.30
2017-10-18T09:33:08.761Z,19.80
2017-10-18T09:35:36.375Z,19.43
2017-10-18T09:38:04.040Z,20.47
2017-10-18T09:40:31.571Z,21.33
2017-10-18T09:43:02.376Z,19.23
2017-10-18T09:45:29.896Z,18.90
2017-10-18T09:47:57.371Z,16.53
2017-10-18T09:50:24.826Z,17.30
2017-10-18T09:52:52.370Z,19.40
2017-10-18T09:55:19.844Z,18.60
2017-10-18T09:57:47.335Z,17.60
2017-10-18T10:00:14.853Z,18.03
2017-10-18T10:02:42.307Z,18.10
2017-10-18T10:05:09.791Z,20.73
2017-10-18T10:07:37.293Z,19.33
2017-10-18T10:10:04.773Z,18.63
2017-10-18T10:12:32.217Z,16.83
2017-10-18T10:14:59.723Z,18.30
2017-10-18T10:17:27.210Z,19.23
2017-10-18T10:19:54.688Z,18.40
2017-10-18T10:22:22.151Z,18.03
2017-10-18T10:24:49.619Z,18.47
2017-10-18T10:27:17.156Z,17.30
2017-10-18T10:29:44.633Z,17.27
2017-10-18T10:32:12.083Z,17.13
2017-10-18T10:34:39.634Z,18.83
2017-10-18T10:37:07.115Z,18.00
2017-10-18T10:39:34.572Z,17.40
2017-10-18T10:42:02.052Z,18.27
2017-10-18T10:44:29.546Z,18.07
2017-10-18T10:46:57.039Z,17.23
2017-10-18T10:49:24.512Z,18.40
2017-10-18T10:51:52.011Z,17.20
2017-10-18T10:54:19.523Z,16.70
2017-10-18T10:56:46.994Z,17.67
2017-10-18T10:59:14.503Z,17.23
2017-10-18T11:01:41.995Z,16.27
2017-10-18T11:04:09.441Z,15.97
2017-10-18T11:06:36.969Z,18.67
2017-10-18T11:09:04.529Z,18.07
2017-10-18T11:11:31.997Z,19.00
2017-10-18T11:13:59.470Z,17.30
2017-10-18T11:16:27.000Z,18.03
2017-10-18T11:18:54.475Z,17.33
2017-10-18T11:21:21.932Z,17.27
2017-10-18T11:23:49.457Z,17.33
2017-10-18T11:26:16.916Z,17.90
2017-10-18T11:28:44.403Z,16.87
2017-10-18T11:31:11.854Z,16.93
2017-10-18T11:33:39.351Z,17.60
2017-10-18T11:36:06.806Z,17.20
2017-10-18T11:38:34.292Z,16.10
2017-10-18T11:41:01.779Z,14.40
2017-10-18T11:43:29.279Z,14.07
2017-10-18T11:45:56.733Z,14.60
2017-10-18T11:48:24.232Z,14.27
2017-10-18T11:50:51.717Z,13.70
2017-10-18T11:53:19.205Z,14.50
2017-10-18T11:55:46.650Z,14.20
2017-10-18T11:58:14.123Z,13.93
2017-10-18T12:00:41.584Z,13.73
2017-10-18T12:03:09.106Z,13.90
2017-10-18T12:05:36.586Z,13.40
2017-10-18T12:08:04.098Z,15.00
2017-10-18T12:10:31.662Z,13.43
2017-10-18T12:12:59.149Z,12.83
2017-10-18T12:15:26.623Z,12.20
2017-10-18T12:17:54.074Z,11.50
2017-10-18T12:20:21.595Z,12.10
2017-10-18T12:22:49.044Z,10.87
2017-10-18T12:25:16.559Z,11.70
2017-10-18T12:27:44.053Z,10.63
2017-10-18T12:30:11.627Z,10.27
2017-10-18T12:32:39.113Z,10.10
2017-10-18T12:35:06.657Z,9.97
2017-10-18T12:37:34.224Z,10.10
2017-10-18T12:40:01.700Z,9.77
2017-10-18T12:42:29.155Z,9.10
2017-10-18T12:44:56.632Z,8.83
2017-10-18T12:47:24.091Z,9.37
2017-10-18T12:49:51.564Z,8.63
2017-10-18T12:52:19.010Z,9.60
2017-10-18T12:54:46.473Z,8.87
2017-10-18T12:57:13.926Z,8.90
2017-10-18T12:59:41.392Z,8.70
2017-10-18T13:02:08.846Z,8.03
2017-10-18T13:04:36.332Z,8.70
2017-10-18T13:07:03.784Z,9.63
2017-10-18T13:09:31.259Z,9.50
2017-10-18T13:11:58.704Z,8.00
2017-10-18T13:14:26.295Z,7.90
2017-10-18T13:16:53.759Z,7.67
2017-10-18T13:19:21.252Z,8.50
2017-10-18T13:21:48.720Z,10.20
2017-10-18T13:24:16.208Z,9.00
2017-10-18T13:26:43.665Z,9.03
2017-10-18T13:29:11.133Z,9.10
2017-10-18T13:31:38.610Z,8.93
2017-10-18T13:34:06.075Z,10.30
2017-10-18T13:36:33.709Z,9.60
2017-10-18T13:39:01.165Z,9.37
2017-10-18T13:41:28.625Z,9.23
2017-10-18T13:43:56.139Z,8.87
2017-10-18T13:46:23.612Z,9.13
2017-10-18T13:48:51.151Z,10.07
2017-10-18T13:51:18.624Z,9.80
2017-10-18T13:53:46.086Z,8.90
2017-10-18T13:56:13.574Z,8.57
2017-10-18T13:58:41.031Z,9.00
2017-10-18T14:01:08.529Z,7.80
2017-10-18T14:03:35.987Z,8.90
2017-10-18T14:06:03.494Z,8.13
2017-10-18T14:08:30.951Z,8.20
2017-10-18T14:10:58.442Z,7.50
2017-10-18T14:13:25.915Z,8.50
2017-10-18T14:15:53.380Z,9.10
2017-10-18T14:18:20.929Z,7.50
2017-10-18T14:20:48.385Z,7.60
2017-10-18T14:23:15.847Z,7.50
2017-10-18T14:25:43.298Z,9.23
2017-10-18T14:28:10.764Z,8.80
2017-10-18T14:30:38.316Z,8.57
2017-10-18T14:33:05.794Z,8.27
2017-10-18T14:35:33.331Z,8.07
2017-10-18T14:38:00.827Z,7.27
2017-10-18T14:40:28.272Z,7.00
2017-10-18T14:42:55.786Z,8.10
2017-10-18T14:45:23.274Z,8.43
2017-10-18T14:47:51.073Z,8.00
2017-10-18T14:50:18.940Z,8.67
2017-10-18T14:52:46.810Z,8.20
2017-10-18T14:55:14.554Z,8.27
2017-10-18T14:57:42.049Z,7.93
2017-10-18T15:00:09.676Z,7.80
2017-10-18T15:02:37.509Z,7.80
2017-10-18T15:05:05.054Z,7.17
2017-10-18T15:07:32.504Z,8.10
2017-10-18T15:09:59.971Z,8.37
2017-10-18T15:12:27.406Z,7.03
2017-10-18T15:14:54.979Z,7.73
2017-10-18T15:17:22.456Z,8.43
2017-10-18T15:19:49.915Z,8.27
2017-10-18T15:22:17.376Z,7.37
2017-10-18T15:24:44.850Z,8.60
2017-10-18T15:27:12.302Z,8.53
2017-10-18T15:29:39.808Z,8.00
2017-10-18T15:32:07.254Z,7.83
2017-10-18T15:34:34.794Z,8.17
2017-10-18T15:37:02.248Z,8.20
2017-10-18T15:39:29.695Z,8.10
2017-10-18T15:41:57.151Z,9.50
2017-10-18T15:44:24.664Z,8.33
2017-10-18T15:46:52.134Z,9.70
2017-10-18T15:49:19.581Z,10.77
2017-10-18T15:51:47.053Z,10.40
2017-10-18T15:54:14.530Z,10.90
2017-10-18T15:56:42.053Z,10.20
2017-10-18T15:59:09.510Z,12.53
2017-10-18T16:01:36.983Z,11.57
2017-10-18T16:04:04.448Z,12.03
2017-10-18T16:06:31.977Z,12.93
2017-10-18T16:08:59.417Z,12.50
2017-10-18T16:11:26.911Z,13.10
2017-10-18T16:13:54.441Z,11.40
2017-10-18T16:16:21.923Z,12.00
2017-10-18T16:18:49.391Z,12.57
2017-10-18T16:21:16.875Z,11.70
2017-10-18T16:23:44.321Z,12.67
2017-10-18T16:26:11.838Z,10.97
2017-10-18T16:28:39.286Z,11.70
2017-10-18T16:31:06.861Z,11.70
2017-10-18T16:33:34.316Z,11.80
2017-10-18T16:36:01.806Z,10.67
2017-10-18T16:38:29.263Z,10.90
2017-10-18T16:40:56.737Z,12.03
2017-10-18T16:43:24.212Z,10.30
2017-10-18T16:45:51.707Z,10.80
2017-10-18T16:48:19.158Z,9.50
2017-10-18T16:50:46.622Z,9.70
2017-10-18T16:53:14.074Z,9.63
2017-10-18T16:55:41.558Z,9.03
2017-10-18T16:58:09.075Z,8.60
2017-10-18T17:00:36.537Z,9.87
2017-10-18T17:03:04.100Z,9.53
2017-10-18T17:05:31.586Z,9.03
2017-10-18T17:07:59.034Z,10.03
2017-10-18T17:10:26.484Z,8.97
2017-10-18T17:12:54.020Z,9.63
2017-10-18T17:15:21.499Z,12.10
2017-10-18T17:17:49.028Z,8.57
2017-10-18T17:20:16.470Z,9.47
2017-10-18T17:22:43.974Z,9.20
2017-10-18T17:25:11.423Z,9.20
2017-10-18T17:27:38.899Z,9.57
2017-10-18T17:30:06.426Z,9.47
2017-10-18T17:32:33.907Z,9.23
2017-10-18T17:35:01.350Z,7.77
2017-10-18T17:37:28.852Z,8.40
2017-10-18T17:39:56.296Z,7.87
2017-10-18T17:42:23.761Z,8.17
2017-10-18T17:44:51.216Z,9.37
2017-10-18T17:47:18.691Z,9.30
2017-10-18T17:49:46.180Z,7.83
2017-10-18T17:52:13.637Z,8.33
2017-10-18T17:54:41.112Z,9.07
2017-10-18T17:57:08.587Z,9.00
2017-10-18T17:59:36.065Z,8.97
2017-10-18T18:02:03.529Z,8.67
2017-10-18T18:04:31.006Z,9.47
2017-10-18T18:06:58.581Z,8.73
2017-10-18T18:09:26.034Z,8.73
2017-10-18T18:11:53.503Z,8.63
2017-10-18T18:14:20.946Z,7.70
2017-10-18T18:16:48.434Z,8.53
2017-10-18T18:19:15.974Z,10.17
2017-10-18T18:21:43.456Z,8.67
2017-10-18T18:24:11.030Z,8.67
2017-10-18T18:26:38.548Z,8.87
2017-10-18T18:29:06.006Z,8.83
2017-10-18T18:31:33.548Z,7.17
2017-10-18T18:34:01.113Z,9.20
2017-10-18T18:36:28.672Z,8.60
2017-10-18T18:38:56.274Z,9.13
2017-10-18T18:41:23.722Z,8.90
2017-10-18T18:43:51.203Z,10.30
2017-10-18T18:46:18.664Z,9.30
2017-10-18T18:48:46.147Z,10.83
2017-10-18T18:51:13.622Z,11.43
2017-10-18T18:53:41.414Z,11.30
2017-10-18T18:56:08.873Z,10.63
2017-10-18T18:58:36.351Z,11.30
2017-10-18T19:01:03.806Z,11.43
2017-10-18T19:03:31.288Z,11.47
2017-10-18T19:05:58.752Z,10.77
2017-10-18T19:08:26.236Z,11.07
2017-10-18T19:10:53.687Z,9.83
2017-10-18T19:13:21.157Z,11.90
2017-10-18T19:15:48.618Z,12.43
2017-10-18T19:18:16.143Z,13.57
2017-10-18T19:20:43.704Z,11.80
2017-10-18T19:23:11.194Z,11.90
2017-10-18T19:25:38.646Z,10.23
2017-10-18T19:28:06.117Z,11.77
2017-10-18T19:30:33.573Z,9.60
2017-10-18T19:33:01.072Z,11.53
2017-10-18T19:35:28.538Z,11.20
2017-10-18T19:37:56.027Z,12.20
2017-10-18T19:40:23.561Z,12.57
2017-10-18T19:42:51.060Z,10.33
2017-10-18T19:45:18.516Z,10.80
2017-10-18T19:47:45.995Z,10.37
2017-10-18T19:50:13.489Z,9.37
2017-10-18T19:52:41.147Z,10.23
2017-10-18T19:55:08.632Z,10.20
2017-10-18T19:57:36.094Z,9.07
2017-10-18T20:00:03.563Z,10.70
2017-10-18T20:02:31.074Z,10.50
2017-10-18T20:04:58.537Z,10.30
2017-10-18T20:07:26.082Z,9.13
2017-10-18T20:09:53.699Z,9.90
2017-10-18T20:12:21.141Z,8.70
2017-10-18T20:14:48.616Z,9.80
2017-10-18T20:17:16.066Z,9.70
2017-10-18T20:19:43.589Z,10.10
2017-10-18T20:22:11.042Z,12.40
2017-10-18T20:24:38.600Z,9.00
2017-10-18T20:27:06.056Z,9.30
2017-10-18T20:29:33.540Z,9.70
2017-10-18T20:32:00.982Z,11.13
2017-10-18T20:34:28.471Z,10.63
2017-10-18T20:36:55.919Z,10.27
2017-10-18T20:39:23.440Z,11.83
2017-10-18T20:41:50.896Z,10.77
2017-10-18T20:44:18.509Z,11.07
2017-10-18T20:46:46.021Z,10.60
2017-10-18T20:49:13.486Z,10.90
2017-10-18T20:51:40.939Z,11.40
2017-10-18T20:54:08.447Z,10.30
2017-10-18T20:56:35.898Z,10.37
2017-10-18T20:59:03.508Z,11.60
2017-10-18T21:01:31.066Z,9.90
2017-10-18T21:03:58.553Z,11.27
2017-10-18T21:06:26.079Z,10.50
2017-10-18T21:08:53.611Z,10.73
2017-10-18T21:11:21.073Z,9.80
2017-10-18T21:13:48.557Z,11.60
2017-10-18T21:16:16.039Z,10.57
2017-10-18T21:18:43.485Z,10.30
2017-10-18T21:21:11.016Z,10.77
2017-10-18T21:23:38.477Z,10.17
2017-10-18T21:26:05.972Z,10.93
2017-10-18T21:28:33.451Z,10.37
2017-10-18T21:31:00.935Z,11.40
2017-10-18T21:33:28.388Z,9.60
2017-10-18T21:35:56.738Z,9.07
2017-10-18T21:38:24.182Z,11.00
2017-10-18T21:40:51.651Z,10.70
2017-10-18T21:43:19.409Z,11.47
2017-10-18T21:45:46.924Z,12.77
2017-10-18T21:48:14.402Z,10.63
2017-10-18T21:50:41.940Z,11.80
2017-10-18T21:53:09.473Z,11.20
2017-10-18T21:55:36.944Z,11.83
2017-10-18T21:58:04.405Z,12.30
2017-10-18T22:00:31.889Z,12.37
2017-10-18T22:02:59.344Z,12.00
2017-10-18T22:05:26.845Z,11.63
2017-10-18T22:07:54.301Z,11.70
2017-10-18T22:10:21.770Z,10.73
2017-10-18T22:12:49.243Z,9.47
2017-10-18T22:15:16.727Z,9.13
2017-10-18T22:17:44.212Z,11.80
2017-10-18T22:20:11.683Z,10.50
2017-10-18T22:22:39.132Z,10.60
2017-10-18T22:25:06.635Z,11.53
2017-10-18T22:27:34.191Z,10.40
2017-10-18T22:30:01.748Z,12.90
2017-10-18T22:32:30.807Z,12.50
2017-10-18T22:34:58.300Z,10.93
2017-10-18T22:37:25.759Z,10.40
2017-10-18T22:39:53.208Z,11.73
2017-10-18T22:42:20.680Z,12.30
2017-10-18T22:44:48.122Z,12.77
2017-10-18T22:47:15.582Z,11.87
2017-10-18T22:49:43.136Z,12.40
2017-10-18T22:52:10.692Z,11.90
2017-10-18T22:54:38.134Z,10.37
2017-10-18T22:57:05.594Z,10.53
2017-10-18T22:59:33.067Z,11.20
2017-10-18T23:02:00.543Z,12.03
2017-10-18T23:04:27.996Z,13.07
2017-10-18T23:06:55.526Z,11.63
2017-10-18T23:09:22.977Z,11.17
2017-10-18T23:11:50.467Z,10.77
2017-10-18T23:14:18.008Z,10.90
2017-10-18T23:16:45.474Z,9.70
2017-10-18T23:19:13.010Z,10.83
2017-10-18T23:21:40.495Z,10.63
2017-10-18T23:24:07.976Z,10.53
2017-10-18T23:26:35.491Z,11.40
2017-10-18T23:29:02.935Z,12.10
2017-10-18T23:31:30.404Z,11.60
2017-10-18T23:33:57.842Z,11.33
2017-10-18T23:36:25.444Z,12.43
2017-10-18T23:38:52.885Z,11.20
2017-10-18T23:41:20.359Z,12.47
2017-10-18T23:43:47.830Z,10.80
2017-10-18T23:46:15.300Z,11.17
2017-10-18T23:48:42.773Z,11.63
2017-10-18T23:51:10.252Z,11.27
2017-10-18T23:53:37.698Z,10.77
2017-10-18T23:56:05.180Z,11.40
2017-10-18T23:58:32.634Z,11.60
